Robbins, Texas
Current Conditions -  °F | °C
As of 12:55 PM on Monday 20 Oct 2014 (Local Time) from KLXY Reporting Station
Clear Clear  
Wind Chill: 74°   Ceiling: Unl
Heat Index: 74°   Visibility: 10mi
Dew Point: 60°   Wind: 0mph
Humidity: 63%   Direction: NA
Pressure: 30.08"   Gusts: NA
Location:  31.3714°N, 96.2118°W
Report Text: KLXY 201755Z AUTO 00000KT 10SM CLR 23/16 A3008 RMK AO2 T02330158 10239 20133
Loading
Personal Weather Stations






























Interactive Weather Map
Tropical Storm Tracking
New forecast layout! Learn more

10-Day Weather Forecast

Advertisements
Track Severe Weather on mobile